New Orleans Nas Jrb/Alvin Callender Field/ Airport
KNBG : now visible

Airfield :











YOU CAN JOIN US ON...

 
LOGIN :

Register | Disclaimer

   EN    FR    IT 

 









Legend :    VFR   Marginal VFR   IFR   Intensive IFR   Very Intensive IFR
Visi :
Ceiling :
>= 8 km
>= 3000ft
5 to 8 km
1000 to 3000 ft
1500m to 5 km
500 to 1000 ft
800 to 1500m
200 to 500 ft
< 800m
< 200 ft
Symbols :   Thunderstorms  Fog  Heavy snow  Heavy precipitations  Wind > 20 kt






- Airport Elevation : 2 ft


KNBG - New Orleans Nas Jrb/Alvin Callender Field/

CURRENT METAR :
  • 271355Z 10004KT 1/4SM FG VV002 22/22 A3007 RMK AO2 SLP180 T02170217 $

EXPIRED METARs :
  • 271255Z 00000KT 1/8SM FG VV002 21/21 A3008 RMK AO2 SLP183 T02110211 $
  • 271155Z 00000KT 1/4SM FG VV002 23/23 A3006 RMK AO2 SLP177 70001 T02280228 53003 $

TAF AMD TAF KNBG
Valid from the 27 at 09:00 until the 28 at 07:00 UTC


2709/2807 VRB05KT 3600 BR VCSH OVC005 QNH3001INS
TEMPO 2709/2715 1200 BR OVC002
BECMG 2715/2717 VRB06KT 9999 VCSH SCT025 BKN050 QNH2998INS
TEMPO 2718/2800 4800 SHRA BKN015 OVC030 AUTOMATED SENSOR METWATCH 2709 TIL 2711 T21/2712Z T25/2721Z AMD 0935 FN00205
KZHU FIR / North America



MET'MAP, your aeronautical weather chart ! - Copyright ORBIFLY December 2007 - Disclaimer

ORBIFLY MET'MAP TEAM :

Programming & Development : Alexandra Zaïnal
Concept & original design : Baudouin d'Aumeries
Assistance for programming : Marc-Olivier Méhu
Technical & hardware support : Manuel Goepfert

Contact : metmap@orbifly.com




SOURCES & CREDITS :

   NOAA       Earth
Advisory